sensor_id;sensor_type;location;lat;lon;timestamp;temperature;humidity
59309;DHT22;48433;53.016;-2.260;2023-04-25T00:00:51;2.30;99.90
59309;DHT22;48433;53.016;-2.260;2023-04-25T00:03:20;2.20;99.90
59309;DHT22;48433;53.016;-2.260;2023-04-25T00:05:48;2.20;99.90
59309;DHT22;48433;53.016;-2.260;2023-04-25T00:08:16;2.20;99.90
59309;DHT22;48433;53.016;-2.260;2023-04-25T00:10:44;2.20;99.90
59309;DHT22;48433;53.016;-2.260;2023-04-25T00:13:12;2.20;99.90
59309;DHT22;48433;53.016;-2.260;2023-04-25T00:15:40;2.30;99.90
59309;DHT22;48433;53.016;-2.260;2023-04-25T00:18:09;2.30;99.90
59309;DHT22;48433;53.016;-2.260;2023-04-25T00:20:38;2.30;99.90
59309;DHT22;48433;53.016;-2.260;2023-04-25T00:23:06;2.30;99.90
59309;DHT22;48433;53.016;-2.260;2023-04-25T00:25:33;2.30;99.90
59309;DHT22;48433;53.016;-2.260;2023-04-25T00:28:01;2.40;99.90
59309;DHT22;48433;53.016;-2.260;2023-04-25T00:30:28;2.40;99.90
59309;DHT22;48433;53.016;-2.260;2023-04-25T00:32:56;2.40;99.90
59309;DHT22;48433;53.016;-2.260;2023-04-25T00:35:23;2.40;99.90
59309;DHT22;48433;53.016;-2.260;2023-04-25T00:37:51;2.40;99.90
59309;DHT22;48433;53.016;-2.260;2023-04-25T00:40:19;2.30;99.90
59309;DHT22;48433;53.016;-2.260;2023-04-25T00:42:47;2.30;99.90
59309;DHT22;48433;53.016;-2.260;2023-04-25T00:45:15;2.10;99.90
59309;DHT22;48433;53.016;-2.260;2023-04-25T00:47:43;2.10;99.90
59309;DHT22;48433;53.016;-2.260;2023-04-25T00:50:11;2.10;99.90
59309;DHT22;48433;53.016;-2.260;2023-04-25T00:52:41;2.00;99.90
59309;DHT22;48433;53.016;-2.260;2023-04-25T00:55:11;1.90;99.90
59309;DHT22;48433;53.016;-2.260;2023-04-25T00:57:40;2.00;99.90
59309;DHT22;48433;53.016;-2.260;2023-04-25T01:00:09;1.90;99.90
59309;DHT22;48433;53.016;-2.260;2023-04-25T01:02:38;1.90;99.90
59309;DHT22;48433;53.016;-2.260;2023-04-25T01:05:07;1.80;99.90
59309;DHT22;48433;53.016;-2.260;2023-04-25T01:07:36;1.80;99.90
59309;DHT22;48433;53.016;-2.260;2023-04-25T01:10:05;1.80;99.90
59309;DHT22;48433;53.016;-2.260;2023-04-25T01:12:33;1.80;99.90
59309;DHT22;48433;53.016;-2.260;2023-04-25T01:15:01;1.80;99.90
59309;DHT22;48433;53.016;-2.260;2023-04-25T01:17:29;1.70;99.90
59309;DHT22;48433;53.016;-2.260;2023-04-25T01:19:58;1.80;99.90
59309;DHT22;48433;53.016;-2.260;2023-04-25T01:22:26;2.40;99.90
59309;DHT22;48433;53.016;-2.260;2023-04-25T01:24:54;1.60;99.90
59309;DHT22;48433;53.016;-2.260;2023-04-25T01:27:22;1.60;99.90
59309;DHT22;48433;53.016;-2.260;2023-04-25T01:29:50;1.60;99.90
59309;DHT22;48433;53.016;-2.260;2023-04-25T01:32:18;1.60;99.90
59309;DHT22;48433;53.016;-2.260;2023-04-25T01:34:46;1.60;99.90
59309;DHT22;48433;53.016;-2.260;2023-04-25T01:37:13;1.60;99.90
59309;DHT22;48433;53.016;-2.260;2023-04-25T01:39:41;1.60;99.90
59309;DHT22;48433;53.016;-2.260;2023-04-25T01:42:09;1.50;99.90
59309;DHT22;48433;53.016;-2.260;2023-04-25T01:44:36;1.60;99.90
59309;DHT22;48433;53.016;-2.260;2023-04-25T01:47:05;1.50;99.90
59309;DHT22;48433;53.016;-2.260;2023-04-25T01:49:33;1.50;99.90
59309;DHT22;48433;53.016;-2.260;2023-04-25T01:52:00;1.50;99.90
59309;DHT22;48433;53.016;-2.260;2023-04-25T01:54:28;1.30;99.90
59309;DHT22;48433;53.016;-2.260;2023-04-25T01:56:57;1.30;99.90
59309;DHT22;48433;53.016;-2.260;2023-04-25T01:59:24;1.20;99.90
59309;DHT22;48433;53.016;-2.260;2023-04-25T02:02:12;1.10;99.90
59309;DHT22;48433;53.016;-2.260;2023-04-25T02:04:40;1.10;99.90
59309;DHT22;48433;53.016;-2.260;2023-04-25T02:07:08;1.00;99.90
59309;DHT22;48433;53.016;-2.260;2023-04-25T02:09:52;1.00;99.90
59309;DHT22;48433;53.016;-2.260;2023-04-25T02:12:22;0.90;99.90
59309;DHT22;48433;53.016;-2.260;2023-04-25T02:15:15;0.90;99.90
59309;DHT22;48433;53.016;-2.260;2023-04-25T02:17:52;0.90;99.90
59309;DHT22;48433;53.016;-2.260;2023-04-25T02:20:23;0.90;99.90
59309;DHT22;48433;53.016;-2.260;2023-04-25T02:22:51;0.90;99.90
59309;DHT22;48433;53.016;-2.260;2023-04-25T02:25:20;0.90;99.90
59309;DHT22;48433;53.016;-2.260;2023-04-25T02:27:48;0.90;99.90
59309;DHT22;48433;53.016;-2.260;2023-04-25T02:30:16;0.80;99.90
59309;DHT22;48433;53.016;-2.260;2023-04-25T02:32:43;0.80;99.90
59309;DHT22;48433;53.016;-2.260;2023-04-25T02:35:12;0.80;99.90
59309;DHT22;48433;53.016;-2.260;2023-04-25T02:37:40;0.70;99.90
59309;DHT22;48433;53.016;-2.260;2023-04-25T02:40:08;0.80;99.90
59309;DHT22;48433;53.016;-2.260;2023-04-25T02:42:36;0.70;99.90
59309;DHT22;48433;53.016;-2.260;2023-04-25T02:45:03;0.60;99.90
59309;DHT22;48433;53.016;-2.260;2023-04-25T02:47:31;0.60;99.90
59309;DHT22;48433;53.016;-2.260;2023-04-25T02:49:59;0.60;99.90
59309;DHT22;48433;53.016;-2.260;2023-04-25T02:52:27;0.60;99.90
59309;DHT22;48433;53.016;-2.260;2023-04-25T02:55:02;0.50;99.90
59309;DHT22;48433;53.016;-2.260;2023-04-25T02:57:31;0.50;99.90
59309;DHT22;48433;53.016;-2.260;2023-04-25T02:59:58;0.60;99.90
59309;DHT22;48433;53.016;-2.260;2023-04-25T03:02:26;0.50;99.90
59309;DHT22;48433;53.016;-2.260;2023-04-25T03:04:54;0.50;99.90
59309;DHT22;48433;53.016;-2.260;2023-04-25T03:07:22;0.50;99.90
59309;DHT22;48433;53.016;-2.260;2023-04-25T03:09:49;0.40;99.90
59309;DHT22;48433;53.016;-2.260;2023-04-25T03:12:17;0.40;99.90
59309;DHT22;48433;53.016;-2.260;2023-04-25T03:17:13;0.40;99.90
59309;DHT22;48433;53.016;-2.260;2023-04-25T03:19:41;0.30;99.90
59309;DHT22;48433;53.016;-2.260;2023-04-25T03:22:08;0.30;99.90
59309;DHT22;48433;53.016;-2.260;2023-04-25T03:24:36;0.20;99.90
59309;DHT22;48433;53.016;-2.260;2023-04-25T03:27:04;0.20;99.90
59309;DHT22;48433;53.016;-2.260;2023-04-25T03:29:32;0.20;99.90
59309;DHT22;48433;53.016;-2.260;2023-04-25T03:32:03;0.20;99.90
59309;DHT22;48433;53.016;-2.260;2023-04-25T03:34:31;0.20;99.90
59309;DHT22;48433;53.016;-2.260;2023-04-25T03:36:59;0.20;99.90
59309;DHT22;48433;53.016;-2.260;2023-04-25T03:39:27;0.30;99.90
59309;DHT22;48433;53.016;-2.260;2023-04-25T03:41:56;0.20;99.90
59309;DHT22;48433;53.016;-2.260;2023-04-25T03:44:23;0.20;99.90
59309;DHT22;48433;53.016;-2.260;2023-04-25T03:46:51;0.20;99.90
59309;DHT22;48433;53.016;-2.260;2023-04-25T03:49:19;0.20;99.90
59309;DHT22;48433;53.016;-2.260;2023-04-25T03:52:03;0.10;99.90
59309;DHT22;48433;53.016;-2.260;2023-04-25T03:54:37;0.10;99.90
59309;DHT22;48433;53.016;-2.260;2023-04-25T03:57:09;0.00;99.90
59309;DHT22;48433;53.016;-2.260;2023-04-25T03:59:39;0.00;99.90
59309;DHT22;48433;53.016;-2.260;2023-04-25T04:02:09;0.00;99.90
59309;DHT22;48433;53.016;-2.260;2023-04-25T04:04:39;0.00;99.90
59309;DHT22;48433;53.016;-2.260;2023-04-25T04:07:07;-0.10;99.90
59309;DHT22;48433;53.016;-2.260;2023-04-25T04:09:37;-0.10;99.90
59309;DHT22;48433;53.016;-2.260;2023-04-25T04:12:08;-0.10;99.90
59309;DHT22;48433;53.016;-2.260;2023-04-25T04:14:39;-0.10;99.90
59309;DHT22;48433;53.016;-2.260;2023-04-25T04:17:07;-0.20;99.90
59309;DHT22;48433;53.016;-2.260;2023-04-25T04:19:35;-0.20;99.90
59309;DHT22;48433;53.016;-2.260;2023-04-25T04:22:16;-0.20;99.90
59309;DHT22;48433;53.016;-2.260;2023-04-25T04:24:44;-0.20;99.90
59309;DHT22;48433;53.016;-2.260;2023-04-25T04:27:18;-0.30;99.90
59309;DHT22;48433;53.016;-2.260;2023-04-25T04:29:52;-0.20;99.90
59309;DHT22;48433;53.016;-2.260;2023-04-25T04:32:31;-0.30;99.90
59309;DHT22;48433;53.016;-2.260;2023-04-25T04:35:03;-0.20;99.90
59309;DHT22;48433;53.016;-2.260;2023-04-25T04:37:31;-0.30;99.90
59309;DHT22;48433;53.016;-2.260;2023-04-25T04:40:01;-0.30;99.90
59309;DHT22;48433;53.016;-2.260;2023-04-25T04:42:59;-0.20;99.90
59309;DHT22;48433;53.016;-2.260;2023-04-25T04:45:49;-0.20;99.90
59309;DHT22;48433;53.016;-2.260;2023-04-25T04:48:41;-0.20;99.90
59309;DHT22;48433;53.016;-2.260;2023-04-25T04:51:23;-0.10;99.90
59309;DHT22;48433;53.016;-2.260;2023-04-25T04:53:53;-0.20;99.90
59309;DHT22;48433;53.016;-2.260;2023-04-25T04:56:48;-0.20;99.90
59309;DHT22;48433;53.016;-2.260;2023-04-25T04:59:48;-0.20;99.90
59309;DHT22;48433;53.016;-2.260;2023-04-25T05:02:38;-0.20;99.90
59309;DHT22;48433;53.016;-2.260;2023-04-25T05:05:27;-0.10;99.90
59309;DHT22;48433;53.016;-2.260;2023-04-25T05:08:13;-0.10;99.90
59309;DHT22;48433;53.016;-2.260;2023-04-25T05:10:52;-0.10;99.90
59309;DHT22;48433;53.016;-2.260;2023-04-25T05:13:42;-0.20;99.90
59309;DHT22;48433;53.016;-2.260;2023-04-25T05:16:21;-0.20;99.90
59309;DHT22;48433;53.016;-2.260;2023-04-25T05:19:09;-0.20;99.90
59309;DHT22;48433;53.016;-2.260;2023-04-25T05:22:11;-0.20;99.90
59309;DHT22;48433;53.016;-2.260;2023-04-25T05:24:53;-0.10;99.90
59309;DHT22;48433;53.016;-2.260;2023-04-25T05:27:45;-0.10;99.90
59309;DHT22;48433;53.016;-2.260;2023-04-25T05:30:39;0.00;99.90
59309;DHT22;48433;53.016;-2.260;2023-04-25T05:33:11;0.10;99.90
59309;DHT22;48433;53.016;-2.260;2023-04-25T05:35:39;0.20;99.90
59309;DHT22;48433;53.016;-2.260;2023-04-25T05:38:07;0.20;99.90
59309;DHT22;48433;53.016;-2.260;2023-04-25T05:40:55;0.30;99.90
59309;DHT22;48433;53.016;-2.260;2023-04-25T05:43:39;0.40;99.90
59309;DHT22;48433;53.016;-2.260;2023-04-25T05:46:20;0.40;99.90
59309;DHT22;48433;53.016;-2.260;2023-04-25T05:49:11;0.40;99.90
59309;DHT22;48433;53.016;-2.260;2023-04-25T05:52:11;0.50;99.90
59309;DHT22;48433;53.016;-2.260;2023-04-25T05:54:47;0.60;99.90
59309;DHT22;48433;53.016;-2.260;2023-04-25T05:57:25;0.60;99.90
59309;DHT22;48433;53.016;-2.260;2023-04-25T05:59:54;0.80;99.90
59309;DHT22;48433;53.016;-2.260;2023-04-25T06:02:25;0.90;99.90
59309;DHT22;48433;53.016;-2.260;2023-04-25T06:04:54;1.00;99.90
59309;DHT22;48433;53.016;-2.260;2023-04-25T06:07:22;1.00;99.90
59309;DHT22;48433;53.016;-2.260;2023-04-25T06:09:50;1.00;99.90
59309;DHT22;48433;53.016;-2.260;2023-04-25T06:12:18;1.10;99.90
59309;DHT22;48433;53.016;-2.260;2023-04-25T06:14:48;1.10;99.90
59309;DHT22;48433;53.016;-2.260;2023-04-25T06:17:15;1.20;99.90
59309;DHT22;48433;53.016;-2.260;2023-04-25T06:19:43;1.30;99.90
59309;DHT22;48433;53.016;-2.260;2023-04-25T06:22:11;1.40;99.90
59309;DHT22;48433;53.016;-2.260;2023-04-25T06:24:40;1.50;99.90
59309;DHT22;48433;53.016;-2.260;2023-04-25T06:27:08;1.60;99.90
59309;DHT22;48433;53.016;-2.260;2023-04-25T06:29:35;1.70;99.90
59309;DHT22;48433;53.016;-2.260;2023-04-25T06:32:03;1.90;99.90
59309;DHT22;48433;53.016;-2.260;2023-04-25T06:34:31;2.00;99.90
59309;DHT22;48433;53.016;-2.260;2023-04-25T06:37:00;2.20;99.90
59309;DHT22;48433;53.016;-2.260;2023-04-25T06:39:28;2.30;99.90
59309;DHT22;48433;53.016;-2.260;2023-04-25T06:41:56;2.50;99.90
59309;DHT22;48433;53.016;-2.260;2023-04-25T06:44:59;2.80;99.90
59309;DHT22;48433;53.016;-2.260;2023-04-25T06:47:30;2.80;99.90
59309;DHT22;48433;53.016;-2.260;2023-04-25T06:49:59;3.00;99.90
59309;DHT22;48433;53.016;-2.260;2023-04-25T06:52:26;3.20;99.90
59309;DHT22;48433;53.016;-2.260;2023-04-25T06:54:54;3.60;99.90
59309;DHT22;48433;53.016;-2.260;2023-04-25T06:57:37;3.50;99.90
59309;DHT22;48433;53.016;-2.260;2023-04-25T07:00:24;3.80;99.90
59309;DHT22;48433;53.016;-2.260;2023-04-25T07:02:53;4.10;99.90
59309;DHT22;48433;53.016;-2.260;2023-04-25T07:05:21;4.50;99.90
59309;DHT22;48433;53.016;-2.260;2023-04-25T07:07:49;4.60;99.90
59309;DHT22;48433;53.016;-2.260;2023-04-25T07:10:16;4.80;99.90
59309;DHT22;48433;53.016;-2.260;2023-04-25T07:12:44;5.00;99.90
59309;DHT22;48433;53.016;-2.260;2023-04-25T07:15:12;5.40;99.90
59309;DHT22;48433;53.016;-2.260;2023-04-25T07:17:43;5.40;99.90
59309;DHT22;48433;53.016;-2.260;2023-04-25T07:20:10;5.60;99.90
59309;DHT22;48433;53.016;-2.260;2023-04-25T07:22:38;5.80;99.90
59309;DHT22;48433;53.016;-2.260;2023-04-25T07:25:06;6.20;99.90
59309;DHT22;48433;53.016;-2.260;2023-04-25T07:27:34;6.10;99.90
59309;DHT22;48433;53.016;-2.260;2023-04-25T07:30:08;6.30;99.90
59309;DHT22;48433;53.016;-2.260;2023-04-25T07:32:39;6.50;99.90
59309;DHT22;48433;53.016;-2.260;2023-04-25T07:35:07;6.80;99.90
59309;DHT22;48433;53.016;-2.260;2023-04-25T07:37:35;6.70;99.90
59309;DHT22;48433;53.016;-2.260;2023-04-25T07:40:09;6.90;99.90
59309;DHT22;48433;53.016;-2.260;2023-04-25T07:42:42;7.00;99.90
59309;DHT22;48433;53.016;-2.260;2023-04-25T07:45:11;7.20;99.90
59309;DHT22;48433;53.016;-2.260;2023-04-25T07:47:40;7.20;99.90
59309;DHT22;48433;53.016;-2.260;2023-04-25T07:50:08;7.30;99.90
59309;DHT22;48433;53.016;-2.260;2023-04-25T07:52:36;7.40;99.90
59309;DHT22;48433;53.016;-2.260;2023-04-25T07:55:13;7.50;99.90
59309;DHT22;48433;53.016;-2.260;2023-04-25T07:57:51;7.50;99.90
59309;DHT22;48433;53.016;-2.260;2023-04-25T08:00:20;7.70;99.90
59309;DHT22;48433;53.016;-2.260;2023-04-25T08:02:54;7.80;99.90
59309;DHT22;48433;53.016;-2.260;2023-04-25T08:05:23;7.80;99.90
59309;DHT22;48433;53.016;-2.260;2023-04-25T08:07:59;7.80;99.90
59309;DHT22;48433;53.016;-2.260;2023-04-25T08:10:27;7.90;99.90
59309;DHT22;48433;53.016;-2.260;2023-04-25T08:12:55;8.00;99.90
59309;DHT22;48433;53.016;-2.260;2023-04-25T08:15:23;8.10;99.90
59309;DHT22;48433;53.016;-2.260;2023-04-25T08:17:51;8.10;99.90
59309;DHT22;48433;53.016;-2.260;2023-04-25T08:20:19;8.30;99.90
59309;DHT22;48433;53.016;-2.260;2023-04-25T08:22:48;8.40;99.90
59309;DHT22;48433;53.016;-2.260;2023-04-25T08:25:36;8.60;99.90
59309;DHT22;48433;53.016;-2.260;2023-04-25T08:28:05;8.80;99.90
59309;DHT22;48433;53.016;-2.260;2023-04-25T08:30:32;9.00;99.90
59309;DHT22;48433;53.016;-2.260;2023-04-25T08:33:00;9.10;99.90
59309;DHT22;48433;53.016;-2.260;2023-04-25T08:35:46;9.40;99.90
59309;DHT22;48433;53.016;-2.260;2023-04-25T08:38:15;9.50;99.90
59309;DHT22;48433;53.016;-2.260;2023-04-25T08:40:44;9.60;99.90
59309;DHT22;48433;53.016;-2.260;2023-04-25T08:43:18;9.60;99.90
59309;DHT22;48433;53.016;-2.260;2023-04-25T08:45:47;9.90;99.90
59309;DHT22;48433;53.016;-2.260;2023-04-25T08:48:24;9.90;99.90
59309;DHT22;48433;53.016;-2.260;2023-04-25T08:50:55;10.00;99.50
59309;DHT22;48433;53.016;-2.260;2023-04-25T08:53:28;10.10;98.70
59309;DHT22;48433;53.016;-2.260;2023-04-25T08:56:00;10.10;95.00
59309;DHT22;48433;53.016;-2.260;2023-04-25T08:58:35;10.10;95.30
59309;DHT22;48433;53.016;-2.260;2023-04-25T09:01:04;10.10;95.70
59309;DHT22;48433;53.016;-2.260;2023-04-25T09:03:40;10.30;96.20
59309;DHT22;48433;53.016;-2.260;2023-04-25T09:06:10;10.50;93.10
59309;DHT22;48433;53.016;-2.260;2023-04-25T09:08:38;10.40;92.50
59309;DHT22;48433;53.016;-2.260;2023-04-25T09:11:07;10.50;92.40
59309;DHT22;48433;53.016;-2.260;2023-04-25T09:13:35;10.60;92.30
59309;DHT22;48433;53.016;-2.260;2023-04-25T09:16:19;10.80;91.50
59309;DHT22;48433;53.016;-2.260;2023-04-25T09:19:24;10.90;91.20
59309;DHT22;48433;53.016;-2.260;2023-04-25T09:22:15;11.00;89.40
59309;DHT22;48433;53.016;-2.260;2023-04-25T09:24:45;11.10;89.10
59309;DHT22;48433;53.016;-2.260;2023-04-25T09:27:19;11.30;88.90
59309;DHT22;48433;53.016;-2.260;2023-04-25T09:29:59;11.50;86.00
59309;DHT22;48433;53.016;-2.260;2023-04-25T09:32:50;11.60;86.50
59309;DHT22;48433;53.016;-2.260;2023-04-25T09:35:25;12.00;84.10
59309;DHT22;48433;53.016;-2.260;2023-04-25T09:37:55;12.10;83.90
59309;DHT22;48433;53.016;-2.260;2023-04-25T09:40:46;12.20;82.60
59309;DHT22;48433;53.016;-2.260;2023-04-25T09:43:24;12.30;82.30
59309;DHT22;48433;53.016;-2.260;2023-04-25T09:45:54;12.90;79.90
59309;DHT22;48433;53.016;-2.260;2023-04-25T09:48:27;13.00;80.80
59309;DHT22;48433;53.016;-2.260;2023-04-25T09:51:11;13.60;78.50
59309;DHT22;48433;53.016;-2.260;2023-04-25T09:53:45;14.00;73.70
59309;DHT22;48433;53.016;-2.260;2023-04-25T09:56:23;14.40;65.90
59309;DHT22;48433;53.016;-2.260;2023-04-25T09:58:53;14.50;64.70
59309;DHT22;48433;53.016;-2.260;2023-04-25T10:01:23;14.60;64.40
59309;DHT22;48433;53.016;-2.260;2023-04-25T10:04:06;14.80;63.50
59309;DHT22;48433;53.016;-2.260;2023-04-25T10:06:55;15.30;61.40
59309;DHT22;48433;53.016;-2.260;2023-04-25T10:09:25;15.60;61.00
59309;DHT22;48433;53.016;-2.260;2023-04-25T10:11:54;16.00;59.60
59309;DHT22;48433;53.016;-2.260;2023-04-25T10:14:22;16.30;57.10
59309;DHT22;48433;53.016;-2.260;2023-04-25T10:16:51;16.50;54.40
59309;DHT22;48433;53.016;-2.260;2023-04-25T10:19:21;16.70;54.80
59309;DHT22;48433;53.016;-2.260;2023-04-25T10:24:29;17.40;53.80
59309;DHT22;48433;53.016;-2.260;2023-04-25T10:26:57;17.70;50.30
59309;DHT22;48433;53.016;-2.260;2023-04-25T10:29:26;18.00;51.10
59309;DHT22;48433;53.016;-2.260;2023-04-25T10:31:53;18.10;50.20
59309;DHT22;48433;53.016;-2.260;2023-04-25T10:34:38;18.40;49.20
59309;DHT22;48433;53.016;-2.260;2023-04-25T10:37:10;18.70;46.10
59309;DHT22;48433;53.016;-2.260;2023-04-25T10:39:40;18.80;46.80
59309;DHT22;48433;53.016;-2.260;2023-04-25T10:42:08;18.80;46.20
59309;DHT22;48433;53.016;-2.260;2023-04-25T10:44:37;18.30;45.70
59309;DHT22;48433;53.016;-2.260;2023-04-25T10:47:07;17.40;44.30
59309;DHT22;48433;53.016;-2.260;2023-04-25T10:49:41;17.20;46.10
59309;DHT22;48433;53.016;-2.260;2023-04-25T10:54:43;17.00;44.30
59309;DHT22;48433;53.016;-2.260;2023-04-25T11:00:17;15.60;45.70
59309;DHT22;48433;53.016;-2.260;2023-04-25T11:02:53;15.30;46.80
59309;DHT22;48433;53.016;-2.260;2023-04-25T11:05:35;16.00;46.00
59309;DHT22;48433;53.016;-2.260;2023-04-25T11:08:36;16.10;46.70
59309;DHT22;48433;53.016;-2.260;2023-04-25T11:11:08;15.90;46.60
59309;DHT22;48433;53.016;-2.260;2023-04-25T11:13:36;15.50;45.60
59309;DHT22;48433;53.016;-2.260;2023-04-25T11:16:07;14.80;45.50
59309;DHT22;48433;53.016;-2.260;2023-04-25T11:18:43;14.80;46.20
59309;DHT22;48433;53.016;-2.260;2023-04-25T11:21:13;15.10;47.00
59309;DHT22;48433;53.016;-2.260;2023-04-25T11:23:40;15.90;46.40
59309;DHT22;48433;53.016;-2.260;2023-04-25T11:26:08;16.40;45.00
59309;DHT22;48433;53.016;-2.260;2023-04-25T11:28:35;16.30;46.10
59309;DHT22;48433;53.016;-2.260;2023-04-25T11:31:04;16.10;45.10
59309;DHT22;48433;53.016;-2.260;2023-04-25T11:33:32;16.70;46.00
59309;DHT22;48433;53.016;-2.260;2023-04-25T11:36:00;18.40;44.40
59309;DHT22;48433;53.016;-2.260;2023-04-25T11:38:28;18.80;44.40
59309;DHT22;48433;53.016;-2.260;2023-04-25T11:40:56;19.90;42.40
59309;DHT22;48433;53.016;-2.260;2023-04-25T11:43:25;20.50;40.10
59309;DHT22;48433;53.016;-2.260;2023-04-25T11:45:53;20.10;36.90
59309;DHT22;48433;53.016;-2.260;2023-04-25T11:48:20;19.90;37.80
59309;DHT22;48433;53.016;-2.260;2023-04-25T11:50:53;19.00;38.80
59309;DHT22;48433;53.016;-2.260;2023-04-25T11:53:22;18.20;39.70
59309;DHT22;48433;53.016;-2.260;2023-04-25T11:55:52;17.90;39.20
59309;DHT22;48433;53.016;-2.260;2023-04-25T11:58:20;18.00;40.10
59309;DHT22;48433;53.016;-2.260;2023-04-25T12:00:47;18.50;39.90
59309;DHT22;48433;53.016;-2.260;2023-04-25T12:03:17;19.30;40.20
59309;DHT22;48433;53.016;-2.260;2023-04-25T12:05:46;21.00;37.80
59309;DHT22;48433;53.016;-2.260;2023-04-25T12:08:15;21.10;38.30
59309;DHT22;48433;53.016;-2.260;2023-04-25T12:10:45;21.70;36.80
59309;DHT22;48433;53.016;-2.260;2023-04-25T12:13:23;21.50;35.10
59309;DHT22;48433;53.016;-2.260;2023-04-25T12:15:51;19.70;35.20
59309;DHT22;48433;53.016;-2.260;2023-04-25T12:18:20;19.20;36.00
59309;DHT22;48433;53.016;-2.260;2023-04-25T12:20:50;17.90;37.10
59309;DHT22;48433;53.016;-2.260;2023-04-25T12:23:25;16.70;38.30
59309;DHT22;48433;53.016;-2.260;2023-04-25T12:25:54;15.60;39.60
59309;DHT22;48433;53.016;-2.260;2023-04-25T12:28:23;15.60;40.40
59309;DHT22;48433;53.016;-2.260;2023-04-25T12:31:05;16.20;40.70
59309;DHT22;48433;53.016;-2.260;2023-04-25T12:33:37;17.30;40.60
59309;DHT22;48433;53.016;-2.260;2023-04-25T12:36:05;19.20;36.80
59309;DHT22;48433;53.016;-2.260;2023-04-25T12:38:39;19.60;37.60
59309;DHT22;48433;53.016;-2.260;2023-04-25T12:41:08;20.60;36.00
59309;DHT22;48433;53.016;-2.260;2023-04-25T12:43:35;21.20;36.00
59309;DHT22;48433;53.016;-2.260;2023-04-25T12:46:03;21.80;32.70
59309;DHT22;48433;53.016;-2.260;2023-04-25T12:48:30;21.60;33.20
59309;DHT22;48433;53.016;-2.260;2023-04-25T12:50:58;21.20;33.40
59309;DHT22;48433;53.016;-2.260;2023-04-25T12:53:26;20.80;33.60
59309;DHT22;48433;53.016;-2.260;2023-04-25T12:55:53;19.80;33.50
59309;DHT22;48433;53.016;-2.260;2023-04-25T12:58:22;19.60;34.40
59309;DHT22;48433;53.016;-2.260;2023-04-25T13:00:50;18.90;35.30
59309;DHT22;48433;53.016;-2.260;2023-04-25T13:03:18;18.10;36.50
59309;DHT22;48433;53.016;-2.260;2023-04-25T13:05:46;16.80;37.50
59309;DHT22;48433;53.016;-2.260;2023-04-25T13:08:13;16.70;38.10
59309;DHT22;48433;53.016;-2.260;2023-04-25T13:10:41;16.30;38.50
59309;DHT22;48433;53.016;-2.260;2023-04-25T13:13:09;15.90;39.40
59309;DHT22;48433;53.016;-2.260;2023-04-25T13:15:36;15.30;39.50
59309;DHT22;48433;53.016;-2.260;2023-04-25T13:18:04;15.30;40.00
59309;DHT22;48433;53.016;-2.260;2023-04-25T13:20:35;15.60;40.00
59309;DHT22;48433;53.016;-2.260;2023-04-25T13:23:03;15.90;39.80
59309;DHT22;48433;53.016;-2.260;2023-04-25T13:25:30;16.00;39.50
59309;DHT22;48433;53.016;-2.260;2023-04-25T13:27:58;16.10;40.00
59309;DHT22;48433;53.016;-2.260;2023-04-25T13:30:26;16.60;39.50
59309;DHT22;48433;53.016;-2.260;2023-04-25T13:32:53;17.40;38.60
59309;DHT22;48433;53.016;-2.260;2023-04-25T13:35:23;19.10;36.30
59309;DHT22;48433;53.016;-2.260;2023-04-25T13:37:51;19.10;36.80
59309;DHT22;48433;53.016;-2.260;2023-04-25T13:40:18;20.20;35.90
59309;DHT22;48433;53.016;-2.260;2023-04-25T13:42:46;21.10;34.20
59309;DHT22;48433;53.016;-2.260;2023-04-25T13:45:13;21.50;33.30
59309;DHT22;48433;53.016;-2.260;2023-04-25T13:47:42;21.90;31.80
59309;DHT22;48433;53.016;-2.260;2023-04-25T13:50:10;22.30;31.60
59309;DHT22;48433;53.016;-2.260;2023-04-25T13:52:37;22.70;31.40
59309;DHT22;48433;53.016;-2.260;2023-04-25T13:55:05;23.00;30.80
59309;DHT22;48433;53.016;-2.260;2023-04-25T13:57:35;23.30;29.70
59309;DHT22;48433;53.016;-2.260;2023-04-25T14:00:05;23.40;29.50
59309;DHT22;48433;53.016;-2.260;2023-04-25T14:02:36;23.50;29.60
59309;DHT22;48433;53.016;-2.260;2023-04-25T14:05:04;23.50;29.00
59309;DHT22;48433;53.016;-2.260;2023-04-25T14:07:34;23.10;28.30
59309;DHT22;48433;53.016;-2.260;2023-04-25T14:10:04;22.60;28.70
59309;DHT22;48433;53.016;-2.260;2023-04-25T14:12:33;22.30;29.50
59309;DHT22;48433;53.016;-2.260;2023-04-25T14:15:00;22.20;29.40
59309;DHT22;48433;53.016;-2.260;2023-04-25T14:17:28;22.40;29.20
59309;DHT22;48433;53.016;-2.260;2023-04-25T14:19:55;22.80;29.60
59309;DHT22;48433;53.016;-2.260;2023-04-25T14:22:23;23.00;28.90
59309;DHT22;48433;53.016;-2.260;2023-04-25T14:24:51;23.00;28.70
59309;DHT22;48433;53.016;-2.260;2023-04-25T14:27:19;22.30;28.10
59309;DHT22;48433;53.016;-2.260;2023-04-25T14:29:47;21.50;29.10
59309;DHT22;48433;53.016;-2.260;2023-04-25T14:32:15;20.70;29.80
59309;DHT22;48433;53.016;-2.260;2023-04-25T14:34:43;20.50;30.40
59309;DHT22;48433;53.016;-2.260;2023-04-25T14:37:10;20.20;29.90
59309;DHT22;48433;53.016;-2.260;2023-04-25T14:39:38;20.00;30.30
59309;DHT22;48433;53.016;-2.260;2023-04-25T14:42:06;20.00;31.20
59309;DHT22;48433;53.016;-2.260;2023-04-25T14:44:33;20.60;30.70
59309;DHT22;48433;53.016;-2.260;2023-04-25T14:47:01;21.40;29.10
59309;DHT22;48433;53.016;-2.260;2023-04-25T14:49:29;21.90;29.90
59309;DHT22;48433;53.016;-2.260;2023-04-25T14:51:56;22.40;29.00
59309;DHT22;48433;53.016;-2.260;2023-04-25T14:54:24;22.60;29.20
59309;DHT22;48433;53.016;-2.260;2023-04-25T14:56:52;22.40;27.90
59309;DHT22;48433;53.016;-2.260;2023-04-25T14:59:20;21.90;28.70
59309;DHT22;48433;53.016;-2.260;2023-04-25T15:01:48;20.90;28.70
59309;DHT22;48433;53.016;-2.260;2023-04-25T15:04:16;19.80;29.40
59309;DHT22;48433;53.016;-2.260;2023-04-25T15:06:44;18.30;30.00
59309;DHT22;48433;53.016;-2.260;2023-04-25T15:09:12;18.10;31.60
59309;DHT22;48433;53.016;-2.260;2023-04-25T15:11:40;17.70;32.20
59309;DHT22;48433;53.016;-2.260;2023-04-25T15:14:07;17.40;32.80
59309;DHT22;48433;53.016;-2.260;2023-04-25T15:16:35;17.30;32.50
59309;DHT22;48433;53.016;-2.260;2023-04-25T15:19:03;17.50;32.90
59309;DHT22;48433;53.016;-2.260;2023-04-25T15:21:31;18.10;33.10
59309;DHT22;48433;53.016;-2.260;2023-04-25T15:23:59;18.90;33.10
59309;DHT22;48433;53.016;-2.260;2023-04-25T15:26:27;19.40;30.70
59309;DHT22;48433;53.016;-2.260;2023-04-25T15:28:55;19.40;30.90
59309;DHT22;48433;53.016;-2.260;2023-04-25T15:31:22;19.70;30.90
59309;DHT22;48433;53.016;-2.260;2023-04-25T15:33:50;20.00;30.50
59309;DHT22;48433;53.016;-2.260;2023-04-25T15:36:18;20.60;29.80
59309;DHT22;48433;53.016;-2.260;2023-04-25T15:38:46;20.70;30.20
59309;DHT22;48433;53.016;-2.260;2023-04-25T15:41:13;20.90;30.00
59309;DHT22;48433;53.016;-2.260;2023-04-25T15:43:41;20.90;31.50
59309;DHT22;48433;53.016;-2.260;2023-04-25T15:46:08;21.10;30.20
59309;DHT22;48433;53.016;-2.260;2023-04-25T15:48:36;21.10;30.80
59309;DHT22;48433;53.016;-2.260;2023-04-25T15:51:03;21.30;30.70
59309;DHT22;48433;53.016;-2.260;2023-04-25T15:53:31;21.20;30.50
59309;DHT22;48433;53.016;-2.260;2023-04-25T15:55:59;20.10;30.40
59309;DHT22;48433;53.016;-2.260;2023-04-25T15:58:26;20.00;31.20